createdAt,value
2018-01-30T00:00:40.155Z,90.93
2018-01-30T00:01:39.879Z,90.96
2018-01-30T00:02:39.801Z,90.99
2018-01-30T00:03:39.821Z,90.98
2018-01-30T00:04:39.834Z,91.02
2018-01-30T00:05:40.007Z,90.91
2018-01-30T00:06:41.012Z,90.88
2018-01-30T00:07:39.987Z,91.01
2018-01-30T00:08:40.682Z,90.95
2018-01-30T00:09:40.497Z,91.06
2018-01-30T00:10:40.064Z,90.93
2018-01-30T00:11:40.248Z,90.96
2018-01-30T00:12:40.691Z,91.17
2018-01-30T00:13:39.811Z,91.07
2018-01-30T00:14:39.885Z,91.22
2018-01-30T00:15:39.608Z,91.18
2018-01-30T00:16:40.435Z,91.44
2018-01-30T00:17:39.940Z,91.68
2018-01-30T00:18:39.848Z,91.61
2018-01-30T00:19:40.046Z,91.98
2018-01-30T00:20:39.914Z,91.94
2018-01-30T00:21:40.639Z,92.03
2018-01-30T00:22:39.902Z,92.12
2018-01-30T00:23:39.829Z,92.18
2018-01-30T00:24:39.990Z,92.17
2018-01-30T00:25:40.626Z,92.21
2018-01-30T00:26:40.546Z,92.01
2018-01-30T00:27:39.899Z,92.16
2018-01-30T00:28:39.586Z,92.1
2018-01-30T00:29:39.576Z,92.21
2018-01-30T00:30:39.657Z,92.12
2018-01-30T00:31:39.983Z,92.33
2018-01-30T00:32:39.810Z,92.21
2018-01-30T00:33:40.119Z,92.27
2018-01-30T00:34:39.965Z,92.3
2018-01-30T00:35:39.986Z,92.31
2018-01-30T00:36:39.953Z,92.34
2018-01-30T00:37:39.841Z,92.33
2018-01-30T00:38:39.740Z,92.63
2018-01-30T00:39:40.081Z,92.45
2018-01-30T00:40:39.992Z,92.56
2018-01-30T00:41:39.893Z,92.6
2018-01-30T00:42:39.796Z,92.63
2018-01-30T00:43:39.926Z,92.67
2018-01-30T00:44:39.797Z,92.72
2018-01-30T00:45:39.897Z,92.75
2018-01-30T00:46:39.705Z,92.77
2018-01-30T00:47:39.740Z,92.81
2018-01-30T00:48:39.983Z,92.88
2018-01-30T00:49:40.082Z,92.79
2018-01-30T00:50:40.012Z,92.86
2018-01-30T00:51:39.601Z,92.84
2018-01-30T00:52:40.230Z,92.96
2018-01-30T00:53:39.691Z,92.91
2018-01-30T00:54:39.807Z,92.88
2018-01-30T00:55:39.647Z,92.8
2018-01-30T00:56:39.869Z,92.97
2018-01-30T00:57:39.957Z,92.88
2018-01-30T00:58:40.006Z,92.93
2018-01-30T00:59:39.862Z,92.76
2018-01-30T01:00:40.270Z,92.77
2018-01-30T01:01:40.429Z,93
2018-01-30T01:02:39.771Z,92.76
2018-01-30T01:03:39.725Z,92.94
2018-01-30T01:04:39.586Z,92.94
2018-01-30T01:05:40.085Z,93.01
2018-01-30T01:06:40.004Z,93.12
2018-01-30T01:07:39.970Z,93.04
2018-01-30T01:08:39.694Z,92.99
2018-01-30T01:09:39.711Z,93.02
2018-01-30T01:10:40.028Z,92.88
2018-01-30T01:11:40.013Z,92.92
2018-01-30T01:12:40.134Z,92.84
2018-01-30T01:13:40.306Z,92.92
2018-01-30T01:14:40.491Z,92.75
2018-01-30T01:15:39.999Z,92.85
2018-01-30T01:16:40.480Z,92.84
2018-01-30T01:17:39.887Z,92.89
2018-01-30T01:18:40.200Z,92.83
2018-01-30T01:19:39.808Z,93
2018-01-30T01:20:39.934Z,92.93
2018-01-30T01:21:39.685Z,92.86
2018-01-30T01:22:40.056Z,93.16
2018-01-30T01:23:40.287Z,92.96
2018-01-30T01:24:40.122Z,93.02
2018-01-30T01:25:40.086Z,93
2018-01-30T01:26:39.956Z,93.16
2018-01-30T01:27:39.867Z,93.15
2018-01-30T01:28:40.509Z,93.21
2018-01-30T01:29:40.290Z,93.29
2018-01-30T01:30:40.083Z,93.27
2018-01-30T01:31:40.112Z,93.28
2018-01-30T01:32:39.767Z,93.34
2018-01-30T01:33:40.825Z,93.24
2018-01-30T01:34:40.921Z,93.37
2018-01-30T01:35:40.783Z,93.42
2018-01-30T01:36:39.938Z,93.39
2018-01-30T01:37:39.809Z,93.53
2018-01-30T01:38:39.969Z,93.55
2018-01-30T01:39:40.693Z,93.53
2018-01-30T01:40:39.836Z,93.56
2018-01-30T01:41:40.513Z,93.59
2018-01-30T01:42:40.224Z,93.5
2018-01-30T01:43:39.934Z,93.77
2018-01-30T01:44:39.891Z,93.7
2018-01-30T01:45:40.000Z,93.77
2018-01-30T01:46:40.106Z,94.1
2018-01-30T01:47:40.849Z,94.05
2018-01-30T01:48:39.746Z,94.1
2018-01-30T01:49:40.404Z,94.28
2018-01-30T01:50:39.895Z,94.56
2018-01-30T01:51:40.166Z,95.07
2018-01-30T01:52:40.087Z,95.6
2018-01-30T01:53:40.049Z,95.91
2018-01-30T01:54:40.008Z,95.85
2018-01-30T01:55:40.007Z,96.07
2018-01-30T01:56:40.460Z,96.09
2018-01-30T01:57:39.721Z,96.27
2018-01-30T01:58:40.339Z,96.19
2018-01-30T01:59:39.933Z,96.65
2018-01-30T02:00:39.796Z,96.61
2018-01-30T02:01:40.137Z,96.44
2018-01-30T02:02:39.898Z,96.36
2018-01-30T02:03:40.700Z,96.44
2018-01-30T02:04:39.878Z,96.18
2018-01-30T02:05:40.089Z,95.94
2018-01-30T02:06:40.091Z,95.65
2018-01-30T02:07:39.861Z,95.56
2018-01-30T02:08:39.950Z,95.33
2018-01-30T02:09:39.743Z,95.01
2018-01-30T02:10:39.915Z,94.7
2018-01-30T02:11:40.009Z,94.71
2018-01-30T02:12:39.880Z,94.68
2018-01-30T02:13:40.304Z,94.69
2018-01-30T02:14:39.963Z,94.79
2018-01-30T02:15:40.433Z,94.78
2018-01-30T02:16:40.329Z,94.83
2018-01-30T02:17:40.010Z,94.9
2018-01-30T02:18:41.903Z,95.16
2018-01-30T02:19:40.734Z,95.49
2018-01-30T02:20:39.943Z,95.5
2018-01-30T02:21:40.138Z,95.28
2018-01-30T02:22:40.349Z,95.32
2018-01-30T02:23:41.018Z,95.21
2018-01-30T02:24:40.162Z,95.12
2018-01-30T02:25:40.988Z,95.12
2018-01-30T02:26:40.058Z,94.91
2018-01-30T02:27:39.893Z,94.71
2018-01-30T02:28:40.247Z,94.8
2018-01-30T02:29:40.068Z,95.2
2018-01-30T02:30:40.025Z,95.09
2018-01-30T02:31:41.090Z,95.06
2018-01-30T02:32:40.279Z,95.45
2018-01-30T02:33:39.892Z,95.3
2018-01-30T02:34:40.363Z,95.18
2018-01-30T02:35:39.994Z,95.39
2018-01-30T02:36:40.269Z,95.61
2018-01-30T02:37:39.932Z,95.32
2018-01-30T02:38:40.477Z,95.21
2018-01-30T02:39:40.243Z,95.29
2018-01-30T02:40:40.092Z,95.4
2018-01-30T02:41:39.995Z,95.68
2018-01-30T02:42:40.299Z,95.79
2018-01-30T02:43:40.687Z,95.72
2018-01-30T02:44:39.979Z,95.36
2018-01-30T02:45:40.046Z,95.36
2018-01-30T02:46:40.112Z,95.5
2018-01-30T02:47:40.054Z,95.84
2018-01-30T02:48:40.016Z,95.89
2018-01-30T02:49:40.759Z,95.89
2018-01-30T02:50:40.285Z,95.74
2018-01-30T02:51:40.066Z,95.66
2018-01-30T02:52:40.006Z,95.75
2018-01-30T02:53:40.854Z,96.05
2018-01-30T02:54:41.036Z,95.81
2018-01-30T02:55:40.006Z,96.05
2018-01-30T02:56:40.344Z,95.64
2018-01-30T02:57:40.041Z,95.86
2018-01-30T02:58:40.214Z,95.93
2018-01-30T02:59:39.932Z,96.21
2018-01-30T03:00:39.842Z,96.37
2018-01-30T03:01:40.155Z,96.48
2018-01-30T03:02:40.768Z,96.36
2018-01-30T03:03:40.192Z,96.42
2018-01-30T03:04:40.095Z,96.46
2018-01-30T03:05:40.219Z,96.28
2018-01-30T03:06:40.005Z,96.26
2018-01-30T03:07:39.117Z,96.3
2018-01-30T03:08:39.221Z,96.35
2018-01-30T03:09:39.121Z,96.47
2018-01-30T03:10:39.071Z,96.5
2018-01-30T03:11:38.995Z,96.59
2018-01-30T03:12:39.441Z,96.7
2018-01-30T03:13:39.112Z,96.79
2018-01-30T03:14:39.407Z,96.58
2018-01-30T03:15:39.276Z,96.15
2018-01-30T03:16:39.317Z,95.65
2018-01-30T03:17:39.751Z,95.37
2018-01-30T03:18:39.658Z,95.23
2018-01-30T03:19:39.166Z,95.67
2018-01-30T03:20:39.796Z,95.34
2018-01-30T03:21:39.258Z,94.9
2018-01-30T03:22:38.982Z,94.93
2018-01-30T03:23:39.228Z,94.88
2018-01-30T03:24:39.204Z,95.05
2018-01-30T03:25:39.460Z,94.7
2018-01-30T03:26:38.931Z,94.61
2018-01-30T03:27:39.263Z,93.19
2018-01-30T03:28:39.188Z,91.18
2018-01-30T03:29:39.593Z,91.59
2018-01-30T03:30:38.933Z,90.35
2018-01-30T03:31:39.319Z,90.13
2018-01-30T03:32:38.801Z,90.02
2018-01-30T03:33:38.948Z,90.75
2018-01-30T03:34:38.860Z,90.75
2018-01-30T03:35:38.892Z,89.59
2018-01-30T03:36:38.862Z,88.79
2018-01-30T03:37:38.994Z,88.64
2018-01-30T03:38:38.884Z,89.74
2018-01-30T03:39:39.097Z,90.12
2018-01-30T03:40:39.052Z,89.53
2018-01-30T03:41:38.957Z,88.92
2018-01-30T03:42:38.814Z,90.06
2018-01-30T03:43:38.916Z,89.59
2018-01-30T03:44:38.908Z,90.15
2018-01-30T03:45:38.924Z,88.49
2018-01-30T03:46:38.973Z,88.64
2018-01-30T03:47:38.885Z,89.53
2018-01-30T03:48:38.983Z,89.45
2018-01-30T03:49:39.146Z,89.83
2018-01-30T03:50:38.878Z,89.79
2018-01-30T03:51:38.902Z,89.41
2018-01-30T03:52:38.935Z,89.41
2018-01-30T03:53:38.773Z,89.5
2018-01-30T03:54:38.848Z,89.31
2018-01-30T03:55:38.701Z,89.48
2018-01-30T03:56:39.021Z,90.15
2018-01-30T03:57:38.997Z,89.99
2018-01-30T03:58:39.044Z,90.19
2018-01-30T03:59:38.885Z,89.92
2018-01-30T04:00:38.989Z,91.2
2018-01-30T04:01:38.840Z,89.63
2018-01-30T04:02:39.008Z,90.13
2018-01-30T04:03:39.038Z,89.87
2018-01-30T04:04:39.007Z,90.44
2018-01-30T04:05:38.900Z,90.14
2018-01-30T04:06:38.888Z,89.79
2018-01-30T04:07:38.930Z,90.31
2018-01-30T04:08:39.074Z,90.42
2018-01-30T04:09:38.917Z,90.84
2018-01-30T04:10:38.946Z,90.7
2018-01-30T04:11:39.784Z,90
2018-01-30T04:12:39.086Z,89.88
2018-01-30T04:13:39.027Z,90.2
2018-01-30T04:14:39.171Z,90.38
2018-01-30T04:15:38.944Z,90.48
2018-01-30T04:16:38.902Z,91.2
2018-01-30T04:17:39.087Z,91.26
2018-01-30T04:18:39.057Z,91.05
2018-01-30T04:19:38.855Z,90.78
2018-01-30T04:20:39.028Z,91.18
2018-01-30T04:21:39.082Z,90.9
2018-01-30T04:22:38.869Z,90.69
2018-01-30T04:23:39.050Z,90.03
2018-01-30T04:24:38.906Z,90.2
2018-01-30T04:25:38.845Z,90.63
2018-01-30T04:26:38.945Z,91.37
2018-01-30T04:27:39.078Z,90.92
2018-01-30T04:28:39.061Z,90.7
2018-01-30T04:29:39.067Z,91.03
2018-01-30T04:30:39.075Z,91.03
2018-01-30T04:31:39.094Z,90.24
2018-01-30T04:32:39.069Z,91.09
2018-01-30T04:33:38.867Z,90.61
2018-01-30T04:34:39.062Z,89.79
2018-01-30T04:35:38.882Z,90.29
2018-01-30T04:36:38.858Z,90.36
2018-01-30T04:37:39.112Z,89.88
2018-01-30T04:38:38.887Z,89.65
2018-01-30T04:39:39.097Z,90.22
2018-01-30T04:40:38.956Z,90.32
2018-01-30T04:41:39.003Z,90.61
2018-01-30T04:42:39.183Z,90.33
2018-01-30T04:43:39.207Z,90.8
2018-01-30T04:44:39.173Z,90.68
2018-01-30T04:45:38.928Z,91.01
2018-01-30T04:46:39.131Z,90.04
2018-01-30T04:47:38.964Z,90.5
2018-01-30T04:48:38.938Z,90.85
2018-01-30T04:49:38.901Z,90.46
2018-01-30T04:50:39.213Z,90.59
2018-01-30T04:51:39.242Z,90.67
2018-01-30T04:52:38.939Z,90.48
2018-01-30T04:53:38.923Z,90.63
2018-01-30T04:54:38.882Z,90.3
2018-01-30T04:55:38.935Z,90.38
2018-01-30T04:56:39.124Z,89.54
2018-01-30T04:57:39.110Z,89.53
2018-01-30T04:58:39.088Z,89.64
2018-01-30T04:59:39.093Z,90.1
2018-01-30T05:00:39.083Z,90.33
2018-01-30T05:01:39.030Z,90.31
2018-01-30T05:02:38.903Z,89.86
2018-01-30T05:03:38.879Z,90.25
2018-01-30T05:04:39.143Z,90.07
2018-01-30T05:05:38.984Z,89.86
2018-01-30T05:06:39.113Z,90.28
2018-01-30T05:07:39.181Z,89.21
2018-01-30T05:08:38.967Z,89.55
2018-01-30T05:09:39.983Z,89.79
2018-01-30T05:10:39.191Z,89.76
2018-01-30T05:11:39.192Z,90.01
2018-01-30T05:12:39.047Z,89.93
2018-01-30T05:13:39.006Z,90.03
2018-01-30T05:14:39.104Z,90.07
2018-01-30T05:15:39.571Z,89.81
2018-01-30T05:16:39.113Z,89.76
2018-01-30T05:17:39.056Z,89.88
2018-01-30T05:18:39.082Z,89.94
2018-01-30T05:19:39.078Z,89.94
2018-01-30T05:20:39.016Z,89.98
2018-01-30T05:21:39.091Z,90.04
2018-01-30T05:22:39.047Z,89.86
2018-01-30T05:23:39.128Z,89.89
2018-01-30T05:24:38.891Z,89.95
2018-01-30T05:25:39.165Z,90.03
2018-01-30T05:26:39.069Z,89.86
2018-01-30T05:27:38.997Z,89.99
2018-01-30T05:28:39.196Z,90
2018-01-30T05:29:39.167Z,89.94
2018-01-30T05:30:39.107Z,89.96
2018-01-30T05:31:39.182Z,89.94
2018-01-30T05:32:39.113Z,89.87
2018-01-30T05:33:39.094Z,89.82
2018-01-30T05:34:39.088Z,89.66
2018-01-30T05:35:39.228Z,89.76
2018-01-30T05:36:38.944Z,89.93
2018-01-30T05:39:50.603Z,89.95
2018-01-30T05:40:39.523Z,89.92
2018-01-30T05:41:39.466Z,89.67
2018-01-30T05:42:39.562Z,89.71
2018-01-30T05:43:39.682Z,89.79
2018-01-30T05:44:39.563Z,89.7
2018-01-30T05:45:39.757Z,89.68
2018-01-30T05:46:39.514Z,89.88
2018-01-30T05:47:39.517Z,89.91
2018-01-30T05:48:39.572Z,89.9
2018-01-30T05:49:39.716Z,89.68
2018-01-30T05:50:39.564Z,89.63
2018-01-30T05:51:39.625Z,89.54
2018-01-30T05:52:39.594Z,89.38
2018-01-30T05:53:39.697Z,89.41
2018-01-30T05:54:39.714Z,89.75
2018-01-30T05:55:39.561Z,89.75
2018-01-30T05:56:39.642Z,89.84
2018-01-30T05:57:39.768Z,89.83
2018-01-30T05:58:39.701Z,89.76
2018-01-30T05:59:39.496Z,89.67
2018-01-30T06:00:39.633Z,89.79
2018-01-30T06:01:39.801Z,89.84
2018-01-30T06:02:39.558Z,90.08
2018-01-30T06:03:39.566Z,90.2
2018-01-30T06:04:39.533Z,90.25
2018-01-30T06:05:39.632Z,90.16
2018-01-30T06:06:39.613Z,90.12
2018-01-30T06:08:39.732Z,90.15
2018-01-30T06:09:39.924Z,90.11
2018-01-30T06:10:39.805Z,90.26
2018-01-30T06:11:39.796Z,90.23
2018-01-30T06:12:39.818Z,90.19
2018-01-30T06:13:39.724Z,90.19
2018-01-30T06:14:39.835Z,90.2
2018-01-30T06:15:39.711Z,90.07
2018-01-30T06:16:39.600Z,89.96
2018-01-30T06:17:39.603Z,90.07
2018-01-30T06:18:39.645Z,90.06
2018-01-30T06:19:39.568Z,90.03
2018-01-30T06:20:39.686Z,90.03
2018-01-30T06:21:39.661Z,90.02
2018-01-30T06:22:39.634Z,90.03
2018-01-30T06:23:39.697Z,90.28
2018-01-30T06:24:39.630Z,90.12
2018-01-30T06:25:39.564Z,90.13
2018-01-30T06:26:39.776Z,90.11
2018-01-30T06:27:39.738Z,90.08
2018-01-30T06:28:39.693Z,90
2018-01-30T06:29:39.670Z,90.04
2018-01-30T06:30:39.766Z,90
2018-01-30T06:31:39.717Z,89.95
2018-01-30T06:32:39.517Z,89.95
2018-01-30T06:33:39.566Z,90.03
2018-01-30T06:34:39.683Z,90.08
2018-01-30T06:35:39.721Z,90.1
2018-01-30T06:36:39.778Z,90.04
2018-01-30T06:37:39.856Z,90.04
2018-01-30T06:38:39.546Z,89.97
2018-01-30T06:39:39.541Z,90.04
2018-01-30T06:40:39.949Z,90.04
2018-01-30T06:41:39.783Z,89.93
2018-01-30T06:42:39.743Z,89.99
2018-01-30T06:43:39.757Z,89.98
2018-01-30T06:44:39.794Z,89.99
2018-01-30T06:45:39.863Z,90.08
2018-01-30T06:46:39.646Z,90.06
2018-01-30T06:47:39.743Z,90.11
2018-01-30T06:48:39.547Z,90.14
2018-01-30T06:49:39.756Z,90.24
2018-01-30T06:50:39.663Z,90.28
2018-01-30T06:51:39.607Z,90.22
2018-01-30T06:52:39.611Z,90.28
2018-01-30T06:53:39.665Z,90.21
2018-01-30T06:54:39.701Z,90.11
2018-01-30T06:55:39.790Z,90.02
2018-01-30T06:56:39.650Z,90.08
2018-01-30T06:57:39.518Z,90.09
2018-01-30T06:58:39.838Z,90.08
2018-01-30T06:59:39.735Z,89.89
2018-01-30T07:00:39.946Z,89.86
2018-01-30T07:01:39.713Z,89.87
2018-01-30T07:02:39.632Z,89.9
2018-01-30T07:03:39.515Z,90.04
2018-01-30T07:04:39.770Z,90.01
2018-01-30T07:05:39.746Z,89.96
2018-01-30T07:06:39.813Z,89.99
2018-01-30T07:07:39.575Z,89.95
2018-01-30T07:08:39.749Z,90.01
2018-01-30T07:09:39.823Z,90.1
2018-01-30T07:10:39.802Z,90.11
2018-01-30T07:11:39.759Z,90.11
2018-01-30T07:12:39.772Z,90.09
2018-01-30T07:13:39.704Z,90
2018-01-30T07:14:39.645Z,90.04
2018-01-30T07:15:39.628Z,90.13
2018-01-30T07:16:39.597Z,90.18
2018-01-30T07:17:39.820Z,90.4
2018-01-30T07:18:39.775Z,90.36
2018-01-30T07:19:39.804Z,90.53
2018-01-30T07:20:39.628Z,90.45
2018-01-30T07:21:39.657Z,90.24
2018-01-30T07:22:39.791Z,90.26
2018-01-30T07:23:39.617Z,90.26
2018-01-30T07:24:39.680Z,90.1
2018-01-30T07:25:39.734Z,90.08
2018-01-30T07:26:39.791Z,90.01
2018-01-30T07:27:39.673Z,89.99
2018-01-30T07:28:39.628Z,90.03
2018-01-30T07:29:39.636Z,90.19
2018-01-30T07:30:39.745Z,90.13
2018-01-30T07:31:39.662Z,90.3
2018-01-30T07:32:39.726Z,90.3
2018-01-30T07:33:39.633Z,90.4
2018-01-30T07:34:39.928Z,90.46
2018-01-30T07:35:39.651Z,90.55
2018-01-30T07:36:39.657Z,90.51
2018-01-30T07:37:39.641Z,90.52
2018-01-30T07:38:39.788Z,90.52
2018-01-30T07:39:39.775Z,90.47
2018-01-30T07:40:39.727Z,90.48
2018-01-30T07:41:39.663Z,90.63
2018-01-30T07:42:39.829Z,90.97
2018-01-30T07:43:39.846Z,90.95
2018-01-30T07:44:39.775Z,91.07
2018-01-30T07:45:39.754Z,91.04
2018-01-30T07:46:39.619Z,91.02
2018-01-30T07:47:39.672Z,90.9
2018-01-30T07:48:39.816Z,90.81
2018-01-30T07:49:39.796Z,90.92
2018-01-30T07:50:39.740Z,91.01
2018-01-30T07:51:40.387Z,91.34
2018-01-30T07:52:39.763Z,91.47
2018-01-30T07:53:39.801Z,91.49
2018-01-30T07:54:39.960Z,91.27
2018-01-30T07:55:39.816Z,91.22
2018-01-30T07:56:39.924Z,91.12
2018-01-30T07:57:39.931Z,91.36
2018-01-30T07:58:39.826Z,91.54
2018-01-30T07:59:39.919Z,91.54
2018-01-30T08:00:39.807Z,91.72
2018-01-30T08:01:39.869Z,91.71
2018-01-30T08:02:39.875Z,91.74
2018-01-30T08:03:39.639Z,91.55
2018-01-30T08:04:39.726Z,91.34
2018-01-30T08:05:39.857Z,91.52
2018-01-30T08:06:39.846Z,91.55
2018-01-30T08:07:40.024Z,91.53
2018-01-30T08:08:39.702Z,91.3
2018-01-30T08:09:39.877Z,91.17
2018-01-30T08:10:39.924Z,91.29
2018-01-30T08:11:39.865Z,91.3
2018-01-30T08:12:40.687Z,91.3
2018-01-30T08:13:39.733Z,91.32
2018-01-30T08:14:39.848Z,91.21
2018-01-30T08:15:39.949Z,91.35
2018-01-30T08:16:39.929Z,91.49
2018-01-30T08:17:39.722Z,91.71
2018-01-30T08:18:39.883Z,91.71
2018-01-30T08:19:40.007Z,91.27
2018-01-30T08:20:39.867Z,91.27
2018-01-30T08:21:39.822Z,91.17
2018-01-30T08:22:39.952Z,91.1
2018-01-30T08:23:39.650Z,91.06
2018-01-30T08:24:39.759Z,91.51
2018-01-30T08:25:39.855Z,91.28
2018-01-30T08:26:40.453Z,91.22
2018-01-30T08:27:40.072Z,91.35
2018-01-30T08:28:39.860Z,91.25
2018-01-30T08:29:39.781Z,91.58
2018-01-30T08:30:39.835Z,91.6
2018-01-30T08:31:39.656Z,91.62
2018-01-30T08:32:39.929Z,91.57
2018-01-30T08:33:39.911Z,91.63
2018-01-30T08:34:39.862Z,91.37
2018-01-30T08:35:39.832Z,91.4
2018-01-30T08:36:39.833Z,91.76
2018-01-30T08:37:39.901Z,91.72
2018-01-30T08:38:39.647Z,91.34
2018-01-30T08:39:39.728Z,91.12
2018-01-30T08:40:39.904Z,91
2018-01-30T08:41:39.604Z,91.25
2018-01-30T08:42:39.920Z,91.34
2018-01-30T08:43:39.790Z,91.31
2018-01-30T08:44:39.625Z,91.27
2018-01-30T08:45:39.737Z,91.17
2018-01-30T08:46:39.802Z,90.83
2018-01-30T08:47:39.671Z,90.53
2018-01-30T08:48:39.754Z,90.33
2018-01-30T08:49:39.722Z,90.51
2018-01-30T08:50:39.740Z,90.47
2018-01-30T08:51:39.771Z,90.57
2018-01-30T08:52:39.668Z,90.53
2018-01-30T08:53:39.644Z,90.44
2018-01-30T08:54:39.715Z,90.67
2018-01-30T08:55:39.834Z,90.58
2018-01-30T08:56:39.884Z,90.58
2018-01-30T08:57:39.870Z,90.4
2018-01-30T08:58:39.588Z,90.32
2018-01-30T08:59:39.587Z,89.7
2018-01-30T09:00:39.743Z,89.83
2018-01-30T09:01:40.007Z,89.74
2018-01-30T09:02:39.653Z,89.84
2018-01-30T09:03:39.661Z,89.94
2018-01-30T09:04:39.735Z,89.98
2018-01-30T09:05:39.790Z,89.91
2018-01-30T09:06:39.907Z,90.03
2018-01-30T09:07:40.244Z,89.96
2018-01-30T09:08:39.901Z,89.93
2018-01-30T09:09:39.679Z,89.81
2018-01-30T09:10:39.836Z,89.76
2018-01-30T09:11:38.890Z,89.57
2018-01-30T09:12:38.772Z,87.95
2018-01-30T09:13:39.172Z,88.86
2018-01-30T09:14:38.780Z,89.14
2018-01-30T09:15:38.790Z,88.74
2018-01-30T09:16:38.666Z,88.32
2018-01-30T09:17:38.852Z,88.1
2018-01-30T09:18:38.965Z,87.77
2018-01-30T09:19:38.820Z,87.64
2018-01-30T09:20:38.834Z,88.02
2018-01-30T09:21:39.756Z,87.71
2018-01-30T09:22:38.893Z,87.71
2018-01-30T09:23:38.847Z,87.86
2018-01-30T09:24:38.846Z,88.05
2018-01-30T09:25:38.982Z,87.91
2018-01-30T09:26:38.935Z,88.07
2018-01-30T09:27:38.855Z,88.31
2018-01-30T09:28:39.030Z,88.22
2018-01-30T09:29:38.958Z,88.13
2018-01-30T09:30:38.779Z,88.64
2018-01-30T09:31:38.822Z,88.52
2018-01-30T09:32:39.695Z,88.53
2018-01-30T09:33:39.127Z,88.45
2018-01-30T09:34:38.875Z,88.38
2018-01-30T09:35:38.780Z,87.39
2018-01-30T09:36:38.928Z,87.29
2018-01-30T09:37:38.982Z,87.5
2018-01-30T09:38:38.816Z,87.71
2018-01-30T09:39:38.844Z,87.98
2018-01-30T09:40:39.035Z,88.07
2018-01-30T09:41:39.093Z,88.1
2018-01-30T09:42:39.069Z,87.99
2018-01-30T09:43:38.997Z,88.1
2018-01-30T09:44:39.072Z,87.9
2018-01-30T09:45:39.132Z,87.97
2018-01-30T09:46:39.088Z,88
2018-01-30T09:47:38.918Z,87.77
2018-01-30T09:48:38.960Z,87.23
2018-01-30T09:49:39.094Z,87.53
2018-01-30T09:50:39.536Z,87.24
2018-01-30T09:51:39.058Z,87
2018-01-30T09:52:39.064Z,87.32
2018-01-30T09:53:39.071Z,86.13
2018-01-30T09:54:39.180Z,86.49
2018-01-30T09:55:39.247Z,86.49
2018-01-30T09:56:38.856Z,86.9
2018-01-30T09:57:38.871Z,86.95
2018-01-30T09:58:39.077Z,87.08
2018-01-30T09:59:39.075Z,86.56
2018-01-30T10:00:40.450Z,85.94
2018-01-30T10:01:39.113Z,85.4
2018-01-30T10:02:39.096Z,85.49
2018-01-30T10:03:39.608Z,85.34
2018-01-30T10:04:39.048Z,85.46
2018-01-30T10:05:38.821Z,86.07
2018-01-30T10:06:39.156Z,85.91
2018-01-30T10:07:38.829Z,85.22
2018-01-30T10:08:39.201Z,85.01
2018-01-30T10:09:38.858Z,84.81
2018-01-30T10:10:38.890Z,85.26
2018-01-30T10:11:39.267Z,84.2
2018-01-30T10:12:39.068Z,84.21
2018-01-30T10:13:39.011Z,84.21
2018-01-30T10:14:39.504Z,84.35
2018-01-30T10:15:39.207Z,83.6
2018-01-30T10:16:39.177Z,81.23
2018-01-30T10:17:39.041Z,83.28
2018-01-30T10:18:39.244Z,82.91
2018-01-30T10:19:39.593Z,81.44
2018-01-30T10:20:39.548Z,81.93
2018-01-30T10:21:39.199Z,83.3
2018-01-30T10:22:39.032Z,83.47
2018-01-30T10:23:39.287Z,83.44
2018-01-30T10:24:39.047Z,84.09
2018-01-30T10:25:39.372Z,84.03
2018-01-30T10:26:38.989Z,84.65
2018-01-30T10:27:39.205Z,84.06
2018-01-30T10:28:40.026Z,84.14
2018-01-30T10:29:40.394Z,84.05
2018-01-30T10:30:41.063Z,82.23
2018-01-30T10:31:40.896Z,83.81
2018-01-30T10:32:40.124Z,83.48
2018-01-30T10:33:39.373Z,82.26
2018-01-30T10:34:39.469Z,83.53
2018-01-30T10:35:39.190Z,82.82
2018-01-30T10:36:40.302Z,83.81
2018-01-30T10:37:39.861Z,83.56
2018-01-30T10:38:39.844Z,83.08
2018-01-30T10:39:40.307Z,83.03
2018-01-30T10:40:39.185Z,83.08
2018-01-30T10:41:39.761Z,82.94
2018-01-30T10:42:40.720Z,82.8
2018-01-30T10:43:39.734Z,82.7
2018-01-30T10:44:40.132Z,82.66
2018-01-30T10:45:39.601Z,82.05
2018-01-30T10:46:39.402Z,82.98
2018-01-30T10:47:40.013Z,83.27
2018-01-30T10:48:39.375Z,81.73
2018-01-30T10:49:40.039Z,82.38
2018-01-30T10:50:40.076Z,82.33
2018-01-30T10:51:40.336Z,81.15
2018-01-30T10:52:40.411Z,81.55
2018-01-30T10:53:39.484Z,82.78
2018-01-30T10:54:39.576Z,81.87
2018-01-30T10:55:40.588Z,81.95
2018-01-30T10:56:40.274Z,81.21
2018-01-30T10:57:40.821Z,81
2018-01-30T10:58:40.111Z,80.94
2018-01-30T10:59:39.539Z,80.38
2018-01-30T11:00:39.479Z,80.01
2018-01-30T11:01:41.106Z,80.74
2018-01-30T11:02:39.459Z,81.18
2018-01-30T11:03:39.559Z,81.35
2018-01-30T11:04:40.788Z,80.47
2018-01-30T11:05:39.666Z,81.17
2018-01-30T11:06:40.092Z,81.19
2018-01-30T11:07:39.450Z,81.75
2018-01-30T11:08:39.670Z,80.64
2018-01-30T11:09:40.213Z,79.7
2018-01-30T11:10:39.470Z,79.45
2018-01-30T11:11:40.561Z,79.6
2018-01-30T11:12:40.188Z,79.01
2018-01-30T11:13:39.497Z,79.08
2018-01-30T11:14:39.671Z,79.85
2018-01-30T11:15:39.703Z,79.55
2018-01-30T11:16:40.734Z,79.03
2018-01-30T11:17:39.551Z,78.56
2018-01-30T11:18:39.852Z,79.05
2018-01-30T11:19:39.591Z,79.84
2018-01-30T11:20:39.406Z,80.16
2018-01-30T11:21:39.395Z,78.93
2018-01-30T11:22:39.682Z,78.05
2018-01-30T11:23:39.606Z,77.93
2018-01-30T11:24:39.508Z,76.79
2018-01-30T11:25:39.651Z,77.29
2018-01-30T11:26:39.583Z,77.91
2018-01-30T11:27:39.693Z,77.76
2018-01-30T11:28:39.448Z,78.8
2018-01-30T11:29:39.386Z,78.74
2018-01-30T11:30:39.323Z,79.54
2018-01-30T11:31:39.561Z,79.6
2018-01-30T11:32:39.599Z,78.97
2018-01-30T11:33:39.366Z,78.93
2018-01-30T11:34:39.475Z,79.13
2018-01-30T11:35:39.612Z,79.42
2018-01-30T11:36:39.376Z,79.1
2018-01-30T11:37:39.548Z,79.41
2018-01-30T11:38:39.489Z,79.58
2018-01-30T11:39:39.497Z,79.96
2018-01-30T11:40:39.567Z,79.28
2018-01-30T11:41:40.208Z,79.14
2018-01-30T11:42:39.363Z,79.8
2018-01-30T11:43:39.143Z,79.54
2018-01-30T11:44:39.302Z,79.99
2018-01-30T11:45:39.184Z,78.6
2018-01-30T11:46:39.247Z,77.69
2018-01-30T11:47:39.080Z,78.26
2018-01-30T11:48:39.321Z,79.18
2018-01-30T11:49:39.286Z,79.61
2018-01-30T11:50:39.327Z,79.75
2018-01-30T11:51:39.016Z,79.72
2018-01-30T11:52:38.960Z,80.04
2018-01-30T11:53:39.221Z,80.24
2018-01-30T11:54:39.176Z,79.65
2018-01-30T11:55:39.104Z,79.94
2018-01-30T11:56:39.108Z,78.07
2018-01-30T11:57:39.079Z,78.21
2018-01-30T11:58:39.222Z,78.73
2018-01-30T11:59:39.715Z,78.61
2018-01-30T12:00:39.295Z,80.05
2018-01-30T12:01:39.289Z,79.75
2018-01-30T12:02:39.320Z,79.46
2018-01-30T12:03:39.332Z,80.06
2018-01-30T12:04:39.524Z,79.05
2018-01-30T12:05:39.331Z,79.01
2018-01-30T12:06:39.247Z,79.73
2018-01-30T12:07:39.124Z,79.69
2018-01-30T12:08:39.259Z,79.83
2018-01-30T12:09:39.106Z,79.43
2018-01-30T12:10:39.317Z,78.38
2018-01-30T12:11:39.295Z,78.76
2018-01-30T12:12:39.548Z,80.13
2018-01-30T12:13:39.465Z,79.5
2018-01-30T12:14:39.492Z,79.53
2018-01-30T12:15:39.346Z,79.92
2018-01-30T12:16:39.226Z,78.38
2018-01-30T12:17:39.279Z,77.83
2018-01-30T12:18:39.322Z,78.13
2018-01-30T12:19:39.303Z,79.53
2018-01-30T12:20:39.332Z,79.23
2018-01-30T12:21:39.281Z,79.38
2018-01-30T12:22:39.323Z,77.91
2018-01-30T12:23:39.427Z,77.93
2018-01-30T12:24:39.443Z,77.74
2018-01-30T12:25:39.492Z,77.71
2018-01-30T12:26:39.340Z,78.07
2018-01-30T12:27:39.379Z,77.94
2018-01-30T12:28:39.356Z,78.41
2018-01-30T12:29:39.317Z,78.19
2018-01-30T12:30:39.406Z,78.1
2018-01-30T12:31:39.289Z,78.08
2018-01-30T12:32:39.487Z,77.96
2018-01-30T12:33:39.915Z,77.29
2018-01-30T12:34:39.513Z,78.37
2018-01-30T12:35:39.520Z,78.68
2018-01-30T12:36:39.672Z,78.97
2018-01-30T12:37:39.804Z,78.95
2018-01-30T12:38:39.232Z,78.88
2018-01-30T12:39:39.476Z,78.04
2018-01-30T12:40:39.252Z,78.94
2018-01-30T12:41:39.639Z,78.66
2018-01-30T12:42:39.757Z,78.86
2018-01-30T12:43:39.320Z,77.62
2018-01-30T12:44:39.519Z,78.74
2018-01-30T12:45:39.510Z,78.34
2018-01-30T12:46:39.481Z,77.47
2018-01-30T12:47:39.601Z,76.94
2018-01-30T12:48:39.341Z,78.01
2018-01-30T12:49:39.354Z,78.28
2018-01-30T12:50:39.495Z,78.56
2018-01-30T12:51:39.423Z,79.04
2018-01-30T12:52:39.293Z,78.24
2018-01-30T12:53:39.566Z,78.27
2018-01-30T12:54:39.336Z,76.47
2018-01-30T12:55:39.298Z,77.85
2018-01-30T12:56:39.457Z,77.72
2018-01-30T12:57:39.258Z,78.85
2018-01-30T12:58:39.388Z,78.4
2018-01-30T12:59:39.537Z,77.9